Agena — LXHI — position and weather

sailwx.info

Track history (hours):
 
Tides and Currents Weather Stations Pressure Air Temp Water Temp Dewpoint Dewpoint Depression Visibility Wind Speed Wind Dir Waves Ship Positions

Agena

Last reported at 2017-Sep-20 19:23 UTC. Time now 2017-Oct-19 05:32 UTC.
Position N 29°45' W 120°49'.
Warning: this ship's position is 28 days out of date.

Length 184 m; draft 6.9 m.

Type: Ship. MMSI: 253356000.

Date/timePositionNaut miles runAvg speedWind from/ knotsBaromVisibWave heightAir tempDewpointWater temp
2017-Sep-20 19:23N 29°45' W 120°49'512.9
2017-Sep-20 18:59N 29°48' W 120°54'46711.6
2017-Sep-19 02:39N 37°21' W 123°09'313.3
2017-Sep-19 02:27N 37°24' W 123°08'613.7
2017-Sep-19 02:00N 37°30' W 123°06'612.1
2017-Sep-19 01:30N 37°35' W 123°02'510.3
2017-Sep-19 01:00N 37°38' W 122°57'510.5
2017-Sep-19 00:30N 37°41' W 122°51'510.4
2017-Sep-19 00:00N 37°44' W 122°46'5 9.5
2017-Sep-18 23:31N 37°46' W 122°40'612.0
2017-Sep-18 23:00N 37°48' W 122°33'815.4
2017-Sep-18 22:30N 37°51' W 122°25'714.9
2017-Sep-18 22:00N 37°58' W 122°26'714.1
2017-Sep-18 21:30N 38°03' W 122°19'612.3
2017-Sep-18 21:00N 38°03' W 122°11'5 8.7
2017-Sep-18 20:29N 38°03' W 122°06'610.3
2017-Sep-18 19:56N 38°04' W 121°58'410.2
2017-Sep-18 19:31N 38°03' W 121°53'17 8.4
2017-Sep-18 17:30N 38°03' W 121°32'11 0.4
2017-Sep-17 10:04N 37°57' W 121°20'0 0.1
2017-Sep-17 10:00N 37°57' W 121°20'5 3.0
2017-Sep-17 08:18N 37°60' W 121°25'2 6.3
2017-Sep-17 08:01N 38°00' W 121°27'6 7.5
2017-Sep-17 07:13N 38°04' W 121°34'4 8.6
2017-Sep-17 06:46N 38°05' W 121°38'2 9.0
2017-Sep-17 06:31N 38°05' W 121°41'5 9.0
2017-Sep-17 05:56N 38°02' W 121°46'410.3
2017-Sep-17 05:30N 38°02' W 121°51'4 7.5
2017-Sep-17 05:00N 38°03' W 121°56'510.7
2017-Sep-17 04:30N 38°04' W 122°03'510.6
2017-Sep-17 04:00N 38°02' W 122°09'510.5
2017-Sep-17 03:30N 38°04' W 122°15'714.3
2017-Sep-17 03:00N 38°01' W 122°23'714.2
2017-Sep-17 02:30N 37°55' W 122°27'611.1
2017-Sep-17 02:01N 37°50' W 122°24'611.7
2017-Sep-17 01:30N 37°48' W 122°31'714.0
2017-Sep-17 01:00N 37°45' W 122°40'510.9
2017-Sep-17 00:30N 37°42' W 122°45'713.6
2017-Sep-17 00:00N 37°38' W 122°52'611.1
2017-Sep-16 23:30N 37°35' W 122°58'5 9.9
2017-Sep-16 23:00N 37°32' W 123°03'612.1
2017-Sep-16 22:30N 37°27' W 123°05'612.2
2017-Sep-16 22:00N 37°21' W 123°08'612.0
2017-Sep-16 21:30N 37°15' W 123°10'711.7
2017-Sep-16 20:57N 37°09' W 123°12'511.8
2017-Sep-16 20:30N 37°04' W 123°14'611.7
2017-Sep-16 20:00N 36°58' W 123°16'611.8
2017-Sep-16 19:30N 36°52' W 123°18'612.2
2017-Sep-16 19:00N 36°47' W 123°21'612.3
2017-Sep-16 18:30N 36°41' W 123°23'1112.5
2017-Sep-16 17:36N 36°30' W 123°27'12 9.9
2017-Sep-16 16:25N 36°19' W 123°32'3 8.3
2017-Sep-16 16:00N 36°16' W 123°33'12712.0
2017-Sep-16 05:25N 34°14' W 124°18'511.7
2017-Sep-16 04:58N 34°09' W 124°20'611.8
2017-Sep-16 04:30N 34°03' W 124°22'12011.6
2017-Sep-15 18:07N 32°07' W 123°46'112.5
2017-Sep-15 18:00N 32°06' W 123°45'812.6
2017-Sep-15 17:22N 31°59' W 123°40'712.7
2017-Sep-15 16:48N 31°53' W 123°35'412.7
2017-Sep-15 16:29N 31°50' W 123°32'612.7
2017-Sep-15 16:00N 31°46' W 123°27'3012.8
2017-Sep-15 13:42N 31°25' W 123°03'3412.9
2017-Sep-15 11:04N 31°00' W 122°35'112.5
2017-Sep-15 11:00N 30°60' W 122°35'912.8
2017-Sep-15 10:19N 30°53' W 122°28'  
Track history (hours):
 
Tides and Currents Weather Stations Pressure Air Temp Water Temp Dewpoint Dewpoint Depression Visibility Wind Speed Wind Dir Waves Ship Positions

Agena

Last reported at 2017-Sep-20 19:23 UTC. Time now 2017-Oct-19 05:32 UTC.
Position N 29°45' W 120°49'.
Warning: this ship's position is 28 days out of date.

Length 184 m; draft 6.9 m.

Type: Ship. MMSI: 253356000.

Date/timePositionNaut miles runAvg speedWind from/ knotsBaromVisibWave heightAir tempDewpointWater temp
2017-Sep-20 19:23N 29°45' W 120°49'512.9
2017-Sep-20 18:59N 29°48' W 120°54'46711.6
2017-Sep-19 02:39N 37°21' W 123°09'313.3
2017-Sep-19 02:27N 37°24' W 123°08'613.7
2017-Sep-19 02:00N 37°30' W 123°06'612.1
2017-Sep-19 01:30N 37°35' W 123°02'510.3
2017-Sep-19 01:00N 37°38' W 122°57'510.5
2017-Sep-19 00:30N 37°41' W 122°51'510.4
2017-Sep-19 00:00N 37°44' W 122°46'5 9.5
2017-Sep-18 23:31N 37°46' W 122°40'612.0
2017-Sep-18 23:00N 37°48' W 122°33'815.4
2017-Sep-18 22:30N 37°51' W 122°25'714.9
2017-Sep-18 22:00N 37°58' W 122°26'714.1
2017-Sep-18 21:30N 38°03' W 122°19'612.3
2017-Sep-18 21:00N 38°03' W 122°11'5 8.7
2017-Sep-18 20:29N 38°03' W 122°06'610.3
2017-Sep-18 19:56N 38°04' W 121°58'410.2
2017-Sep-18 19:31N 38°03' W 121°53'17 8.4
2017-Sep-18 17:30N 38°03' W 121°32'11 0.4
2017-Sep-17 10:04N 37°57' W 121°20'0 0.1
2017-Sep-17 10:00N 37°57' W 121°20'5 3.0
2017-Sep-17 08:18N 37°60' W 121°25'2 6.3
2017-Sep-17 08:01N 38°00' W 121°27'6 7.5
2017-Sep-17 07:13N 38°04' W 121°34'4 8.6
2017-Sep-17 06:46N 38°05' W 121°38'2 9.0
2017-Sep-17 06:31N 38°05' W 121°41'5 9.0
2017-Sep-17 05:56N 38°02' W 121°46'410.3
2017-Sep-17 05:30N 38°02' W 121°51'4 7.5
2017-Sep-17 05:00N 38°03' W 121°56'510.7
2017-Sep-17 04:30N 38°04' W 122°03'510.6
2017-Sep-17 04:00N 38°02' W 122°09'510.5
2017-Sep-17 03:30N 38°04' W 122°15'714.3
2017-Sep-17 03:00N 38°01' W 122°23'714.2
2017-Sep-17 02:30N 37°55' W 122°27'611.1
2017-Sep-17 02:01N 37°50' W 122°24'611.7
2017-Sep-17 01:30N 37°48' W 122°31'714.0
2017-Sep-17 01:00N 37°45' W 122°40'510.9
2017-Sep-17 00:30N 37°42' W 122°45'713.6
2017-Sep-17 00:00N 37°38' W 122°52'611.1
2017-Sep-16 23:30N 37°35' W 122°58'5 9.9
2017-Sep-16 23:00N 37°32' W 123°03'612.1
2017-Sep-16 22:30N 37°27' W 123°05'612.2
2017-Sep-16 22:00N 37°21' W 123°08'612.0
2017-Sep-16 21:30N 37°15' W 123°10'711.7
2017-Sep-16 20:57N 37°09' W 123°12'511.8
2017-Sep-16 20:30N 37°04' W 123°14'611.7
2017-Sep-16 20:00N 36°58' W 123°16'611.8
2017-Sep-16 19:30N 36°52' W 123°18'612.2
2017-Sep-16 19:00N 36°47' W 123°21'612.3
2017-Sep-16 18:30N 36°41' W 123°23'1112.5
2017-Sep-16 17:36N 36°30' W 123°27'12 9.9
2017-Sep-16 16:25N 36°19' W 123°32'3 8.3
2017-Sep-16 16:00N 36°16' W 123°33'12712.0
2017-Sep-16 05:25N 34°14' W 124°18'511.7
2017-Sep-16 04:58N 34°09' W 124°20'611.8
2017-Sep-16 04:30N 34°03' W 124°22'12011.6
2017-Sep-15 18:07N 32°07' W 123°46'112.5
2017-Sep-15 18:00N 32°06' W 123°45'812.6
2017-Sep-15 17:22N 31°59' W 123°40'712.7
2017-Sep-15 16:48N 31°53' W 123°35'412.7
2017-Sep-15 16:29N 31°50' W 123°32'612.7
2017-Sep-15 16:00N 31°46' W 123°27'3012.8
2017-Sep-15 13:42N 31°25' W 123°03'3412.9
2017-Sep-15 11:04N 31°00' W 122°35'112.5
2017-Sep-15 11:00N 30°60' W 122°35'912.8
2017-Sep-15 10:19N 30°53' W 122°28'  

Dump ship's entire track history